sensor_id;sensor_type;location;lat;lon;timestamp;P1;durP1;ratioP1;P2;durP2;ratioP2
12124;SDS011;6126;57.908;16.490;2023-07-30T10:41:06;2.25;;;2.10;;
12124;SDS011;6126;57.908;16.490;2023-07-30T10:43:39;2.30;;;2.13;;
12124;SDS011;6126;57.908;16.490;2023-07-30T10:46:08;4.28;;;2.20;;
12124;SDS011;6126;57.908;16.490;2023-07-30T10:48:38;2.42;;;1.85;;
12124;SDS011;6126;57.908;16.490;2023-07-30T10:51:12;2.50;;;2.30;;
12124;SDS011;6126;57.908;16.490;2023-07-30T10:53:48;2.28;;;2.08;;
12124;SDS011;6126;57.908;16.490;2023-07-30T10:56:17;2.00;;;1.80;;
12124;SDS011;6126;57.908;16.490;2023-07-30T10:58:49;2.08;;;1.90;;
12124;SDS011;6126;57.908;16.490;2023-07-30T11:01:19;2.00;;;1.90;;
12124;SDS011;6126;57.908;16.490;2023-07-30T11:03:49;2.20;;;2.00;;
12124;SDS011;6126;57.908;16.490;2023-07-30T11:06:21;2.05;;;1.90;;
12124;SDS011;6126;57.908;16.490;2023-07-30T11:08:51;2.00;;;1.80;;
12124;SDS011;6126;57.908;16.490;2023-07-30T11:11:18;3.22;;;1.63;;
12124;SDS011;6126;57.908;16.490;2023-07-30T11:13:45;1.77;;;1.40;;
12124;SDS011;6126;57.908;16.490;2023-07-30T11:16:12;1.55;;;1.45;;
12124;SDS011;6126;57.908;16.490;2023-07-30T11:18:40;2.25;;;1.67;;
12124;SDS011;6126;57.908;16.490;2023-07-30T11:21:14;1.67;;;1.58;;
12124;SDS011;6126;57.908;16.490;2023-07-30T11:23:42;2.25;;;1.80;;
12124;SDS011;6126;57.908;16.490;2023-07-30T11:26:14;1.42;;;1.33;;
12124;SDS011;6126;57.908;16.490;2023-07-30T11:28:43;1.88;;;1.30;;
12124;SDS011;6126;57.908;16.490;2023-07-30T11:31:18;1.55;;;1.30;;
12124;SDS011;6126;57.908;16.490;2023-07-30T11:33:47;1.60;;;1.40;;
12124;SDS011;6126;57.908;16.490;2023-07-30T11:36:15;1.50;;;1.40;;
12124;SDS011;6126;57.908;16.490;2023-07-30T11:38:46;1.63;;;1.50;;
12124;SDS011;6126;57.908;16.490;2023-07-30T11:41:13;1.20;;;1.10;;
12124;SDS011;6126;57.908;16.490;2023-07-30T11:43:41;1.60;;;1.42;;
12124;SDS011;6126;57.908;16.490;2023-07-30T11:46:12;1.83;;;1.40;;
12124;SDS011;6126;57.908;16.490;2023-07-30T11:48:40;1.83;;;1.20;;
12124;SDS011;6126;57.908;16.490;2023-07-30T11:58:51;1.50;;;1.40;;
12124;SDS011;6126;57.908;16.490;2023-07-30T12:01:28;1.90;;;1.40;;
12124;SDS011;6126;57.908;16.490;2023-07-30T12:03:59;2.13;;;1.25;;
12124;SDS011;6126;57.908;16.490;2023-07-30T12:09:17;1.20;;;1.10;;
12124;SDS011;6126;57.908;16.490;2023-07-30T12:11:55;1.70;;;1.60;;
12124;SDS011;6126;57.908;16.490;2023-07-30T12:14:27;4.47;;;1.50;;
12124;SDS011;6126;57.908;16.490;2023-07-30T12:17:07;3.15;;;1.35;;
12124;SDS011;6126;57.908;16.490;2023-07-30T12:19:33;1.48;;;1.38;;
12124;SDS011;6126;57.908;16.490;2023-07-30T12:22:01;1.58;;;1.45;;
12124;SDS011;6126;57.908;16.490;2023-07-30T12:24:27;1.55;;;1.23;;
12124;SDS011;6126;57.908;16.490;2023-07-30T12:26:53;1.65;;;1.55;;
12124;SDS011;6126;57.908;16.490;2023-07-30T12:29:19;1.77;;;1.67;;
12124;SDS011;6126;57.908;16.490;2023-07-30T12:31:45;2.85;;;1.40;;
12124;SDS011;6126;57.908;16.490;2023-07-30T12:34:12;2.83;;;1.20;;
12124;SDS011;6126;57.908;16.490;2023-07-30T12:36:38;1.50;;;1.40;;
12124;SDS011;6126;57.908;16.490;2023-07-30T12:39:04;1.40;;;1.30;;
12124;SDS011;6126;57.908;16.490;2023-07-30T12:41:31;1.52;;;1.42;;
12124;SDS011;6126;57.908;16.490;2023-07-30T12:43:56;1.60;;;1.50;;
12124;SDS011;6126;57.908;16.490;2023-07-30T12:46:22;1.40;;;1.30;;
12124;SDS011;6126;57.908;16.490;2023-07-30T12:48:49;1.25;;;1.10;;
12124;SDS011;6126;57.908;16.490;2023-07-30T12:51:16;2.20;;;1.70;;
12124;SDS011;6126;57.908;16.490;2023-07-30T12:53:42;1.90;;;1.20;;
12124;SDS011;6126;57.908;16.490;2023-07-30T12:56:08;1.75;;;1.27;;
12124;SDS011;6126;57.908;16.490;2023-07-30T12:58:34;1.73;;;1.40;;
12124;SDS011;6126;57.908;16.490;2023-07-30T13:01:00;1.40;;;1.30;;
12124;SDS011;6126;57.908;16.490;2023-07-30T13:03:28;2.08;;;1.40;;
12124;SDS011;6126;57.908;16.490;2023-07-30T13:05:54;1.27;;;0.98;;
12124;SDS011;6126;57.908;16.490;2023-07-30T13:08:20;1.08;;;1.00;;
12124;SDS011;6126;57.908;16.490;2023-07-30T13:10:46;1.55;;;1.25;;
12124;SDS011;6126;57.908;16.490;2023-07-30T13:13:12;1.40;;;1.30;;
12124;SDS011;6126;57.908;16.490;2023-07-30T13:15:38;1.90;;;1.40;;
12124;SDS011;6126;57.908;16.490;2023-07-30T13:18:03;1.50;;;1.40;;
12124;SDS011;6126;57.908;16.490;2023-07-30T13:20:29;1.45;;;1.25;;
12124;SDS011;6126;57.908;16.490;2023-07-30T13:22:56;1.15;;;1.05;;
12124;SDS011;6126;57.908;16.490;2023-07-30T13:25:22;1.50;;;1.40;;
12124;SDS011;6126;57.908;16.490;2023-07-30T13:27:49;2.13;;;1.30;;
12124;SDS011;6126;57.908;16.490;2023-07-30T13:30:15;1.20;;;1.10;;
12124;SDS011;6126;57.908;16.490;2023-07-30T13:32:41;1.90;;;1.30;;
12124;SDS011;6126;57.908;16.490;2023-07-30T13:35:07;1.08;;;0.93;;
12124;SDS011;6126;57.908;16.490;2023-07-30T13:37:33;1.17;;;1.08;;
12124;SDS011;6126;57.908;16.490;2023-07-30T13:39:59;1.40;;;1.30;;
12124;SDS011;6126;57.908;16.490;2023-07-30T13:42:25;1.10;;;1.00;;
12124;SDS011;6126;57.908;16.490;2023-07-30T13:44:51;2.03;;;1.40;;
12124;SDS011;6126;57.908;16.490;2023-07-30T13:47:17;1.52;;;1.25;;
12124;SDS011;6126;57.908;16.490;2023-07-30T13:49:43;1.48;;;1.05;;
12124;SDS011;6126;57.908;16.490;2023-07-30T13:52:09;3.22;;;1.30;;
12124;SDS011;6126;57.908;16.490;2023-07-30T13:54:35;1.20;;;1.10;;
12124;SDS011;6126;57.908;16.490;2023-07-30T13:57:03;1.35;;;0.98;;
12124;SDS011;6126;57.908;16.490;2023-07-30T13:59:30;1.48;;;1.00;;
12124;SDS011;6126;57.908;16.490;2023-07-30T14:01:56;1.70;;;1.20;;
12124;SDS011;6126;57.908;16.490;2023-07-30T14:04:22;2.70;;;1.13;;
12124;SDS011;6126;57.908;16.490;2023-07-30T14:06:48;1.20;;;1.05;;
12124;SDS011;6126;57.908;16.490;2023-07-30T14:09:14;1.45;;;1.10;;
12124;SDS011;6126;57.908;16.490;2023-07-30T14:11:40;1.20;;;1.10;;
12124;SDS011;6126;57.908;16.490;2023-07-30T14:14:10;1.15;;;0.90;;
12124;SDS011;6126;57.908;16.490;2023-07-30T14:16:36;0.88;;;0.88;;
12124;SDS011;6126;57.908;16.490;2023-07-30T14:19:01;1.20;;;0.80;;
12124;SDS011;6126;57.908;16.490;2023-07-30T14:21:28;1.25;;;1.05;;
12124;SDS011;6126;57.908;16.490;2023-07-30T14:23:53;0.80;;;0.80;;
12124;SDS011;6126;57.908;16.490;2023-07-30T14:26:20;1.02;;;0.93;;
12124;SDS011;6126;57.908;16.490;2023-07-30T14:28:45;0.88;;;0.82;;
12124;SDS011;6126;57.908;16.490;2023-07-30T14:31:11;0.85;;;0.80;;
12124;SDS011;6126;57.908;16.490;2023-07-30T14:33:37;3.00;;;1.27;;
12124;SDS011;6126;57.908;16.490;2023-07-30T14:36:03;1.10;;;1.00;;
12124;SDS011;6126;57.908;16.490;2023-07-30T14:38:29;0.98;;;0.80;;
12124;SDS011;6126;57.908;16.490;2023-07-30T14:40:59;1.30;;;0.98;;
12124;SDS011;6126;57.908;16.490;2023-07-30T14:43:26;0.65;;;0.65;;
12124;SDS011;6126;57.908;16.490;2023-07-30T14:45:52;1.80;;;0.80;;
12124;SDS011;6126;57.908;16.490;2023-07-30T14:48:17;1.30;;;0.90;;
12124;SDS011;6126;57.908;16.490;2023-07-30T14:50:43;1.17;;;0.82;;
12124;SDS011;6126;57.908;16.490;2023-07-30T14:53:10;0.90;;;0.80;;
12124;SDS011;6126;57.908;16.490;2023-07-30T14:55:35;1.23;;;0.70;;
12124;SDS011;6126;57.908;16.490;2023-07-30T14:58:01;1.58;;;0.73;;
12124;SDS011;6126;57.908;16.490;2023-07-30T15:00:28;0.90;;;0.80;;
12124;SDS011;6126;57.908;16.490;2023-07-30T15:02:54;1.58;;;0.95;;
12124;SDS011;6126;57.908;16.490;2023-07-30T15:05:20;2.25;;;1.00;;
12124;SDS011;6126;57.908;16.490;2023-07-30T15:07:46;1.42;;;1.20;;
12124;SDS011;6126;57.908;16.490;2023-07-30T15:10:12;1.00;;;0.90;;
12124;SDS011;6126;57.908;16.490;2023-07-30T15:12:38;1.70;;;0.93;;
12124;SDS011;6126;57.908;16.490;2023-07-30T15:15:05;1.50;;;1.00;;
12124;SDS011;6126;57.908;16.490;2023-07-30T15:17:31;1.35;;;1.00;;
12124;SDS011;6126;57.908;16.490;2023-07-30T15:19:59;1.60;;;1.00;;
12124;SDS011;6126;57.908;16.490;2023-07-30T15:22:25;1.00;;;0.80;;
12124;SDS011;6126;57.908;16.490;2023-07-30T15:24:51;2.47;;;0.93;;
12124;SDS011;6126;57.908;16.490;2023-07-30T15:27:17;1.77;;;1.00;;
12124;SDS011;6126;57.908;16.490;2023-07-30T15:29:43;0.90;;;0.90;;
12124;SDS011;6126;57.908;16.490;2023-07-30T15:32:09;1.20;;;1.00;;
12124;SDS011;6126;57.908;16.490;2023-07-30T15:34:35;1.30;;;0.73;;
12124;SDS011;6126;57.908;16.490;2023-07-30T15:37:01;3.38;;;1.00;;
12124;SDS011;6126;57.908;16.490;2023-07-30T15:39:27;1.10;;;0.90;;
12124;SDS011;6126;57.908;16.490;2023-07-30T15:41:54;0.80;;;0.70;;
12124;SDS011;6126;57.908;16.490;2023-07-30T15:44:20;2.28;;;0.88;;
12124;SDS011;6126;57.908;16.490;2023-07-30T15:46:46;1.13;;;0.98;;
12124;SDS011;6126;57.908;16.490;2023-07-30T15:49:12;4.10;;;1.23;;
12124;SDS011;6126;57.908;16.490;2023-07-30T15:51:38;1.00;;;0.90;;
12124;SDS011;6126;57.908;16.490;2023-07-30T15:54:04;1.40;;;0.80;;
12124;SDS011;6126;57.908;16.490;2023-07-30T15:56:30;0.75;;;0.75;;
12124;SDS011;6126;57.908;16.490;2023-07-30T15:58:56;2.25;;;1.15;;
12124;SDS011;6126;57.908;16.490;2023-07-30T16:01:21;1.80;;;0.90;;
12124;SDS011;6126;57.908;16.490;2023-07-30T16:03:47;1.08;;;1.00;;
12124;SDS011;6126;57.908;16.490;2023-07-30T16:06:13;1.17;;;1.02;;
12124;SDS011;6126;57.908;16.490;2023-07-30T16:08:39;1.83;;;1.10;;
12124;SDS011;6126;57.908;16.490;2023-07-30T16:11:05;1.83;;;0.80;;
12124;SDS011;6126;57.908;16.490;2023-07-30T16:13:34;1.55;;;1.00;;
12124;SDS011;6126;57.908;16.490;2023-07-30T16:16:10;1.23;;;0.80;;
12124;SDS011;6126;57.908;16.490;2023-07-30T16:18:38;1.35;;;1.00;;
12124;SDS011;6126;57.908;16.490;2023-07-30T16:21:07;4.03;;;1.20;;
12124;SDS011;6126;57.908;16.490;2023-07-30T16:23:35;1.30;;;1.05;;
12124;SDS011;6126;57.908;16.490;2023-07-30T16:26:01;2.05;;;1.17;;
12124;SDS011;6126;57.908;16.490;2023-07-30T16:28:27;1.88;;;1.17;;
12124;SDS011;6126;57.908;16.490;2023-07-30T16:30:53;1.63;;;0.75;;
12124;SDS011;6126;57.908;16.490;2023-07-30T16:33:20;1.23;;;1.02;;
12124;SDS011;6126;57.908;16.490;2023-07-30T16:35:46;3.67;;;1.10;;
12124;SDS011;6126;57.908;16.490;2023-07-30T16:38:13;1.20;;;1.10;;
12124;SDS011;6126;57.908;16.490;2023-07-30T16:40:40;2.35;;;1.30;;
12124;SDS011;6126;57.908;16.490;2023-07-30T16:43:06;0.70;;;0.70;;
12124;SDS011;6126;57.908;16.490;2023-07-30T16:45:33;1.42;;;0.90;;
12124;SDS011;6126;57.908;16.490;2023-07-30T16:47:59;3.78;;;1.17;;
12124;SDS011;6126;57.908;16.490;2023-07-30T16:50:25;2.35;;;0.98;;
12124;SDS011;6126;57.908;16.490;2023-07-30T16:52:51;1.30;;;1.00;;
12124;SDS011;6126;57.908;16.490;2023-07-30T16:55:17;0.90;;;0.90;;
12124;SDS011;6126;57.908;16.490;2023-07-30T16:57:43;1.15;;;1.05;;
12124;SDS011;6126;57.908;16.490;2023-07-30T17:00:09;1.52;;;1.05;;
12124;SDS011;6126;57.908;16.490;2023-07-30T17:02:35;1.73;;;1.13;;
12124;SDS011;6126;57.908;16.490;2023-07-30T17:05:01;3.35;;;1.00;;
12124;SDS011;6126;57.908;16.490;2023-07-30T17:07:27;4.22;;;1.23;;
12124;SDS011;6126;57.908;16.490;2023-07-30T17:09:52;1.38;;;1.05;;
12124;SDS011;6126;57.908;16.490;2023-07-30T17:12:18;2.35;;;1.00;;
12124;SDS011;6126;57.908;16.490;2023-07-30T17:14:45;1.17;;;1.08;;
12124;SDS011;6126;57.908;16.490;2023-07-30T17:17:10;2.03;;;1.15;;
12124;SDS011;6126;57.908;16.490;2023-07-30T17:19:37;1.50;;;1.13;;
12124;SDS011;6126;57.908;16.490;2023-07-30T17:22:04;2.25;;;1.10;;
12124;SDS011;6126;57.908;16.490;2023-07-30T17:24:31;0.82;;;0.82;;
12124;SDS011;6126;57.908;16.490;2023-07-30T17:26:59;1.08;;;0.98;;
12124;SDS011;6126;57.908;16.490;2023-07-30T17:29:24;2.80;;;1.20;;
12124;SDS011;6126;57.908;16.490;2023-07-30T17:31:50;1.23;;;1.13;;
12124;SDS011;6126;57.908;16.490;2023-07-30T17:34:18;1.08;;;0.98;;
12124;SDS011;6126;57.908;16.490;2023-07-30T17:36:44;4.90;;;1.00;;
12124;SDS011;6126;57.908;16.490;2023-07-30T17:39:11;1.55;;;1.20;;
12124;SDS011;6126;57.908;16.490;2023-07-30T17:41:37;1.20;;;1.10;;
12124;SDS011;6126;57.908;16.490;2023-07-30T17:44:02;1.52;;;1.10;;
12124;SDS011;6126;57.908;16.490;2023-07-30T17:46:28;1.23;;;0.77;;
12124;SDS011;6126;57.908;16.490;2023-07-30T17:48:54;1.85;;;0.90;;
12124;SDS011;6126;57.908;16.490;2023-07-30T17:51:20;1.35;;;0.90;;
12124;SDS011;6126;57.908;16.490;2023-07-30T17:53:46;1.27;;;1.10;;
12124;SDS011;6126;57.908;16.490;2023-07-30T17:56:12;1.95;;;1.00;;
12124;SDS011;6126;57.908;16.490;2023-07-30T17:58:38;1.50;;;1.23;;
12124;SDS011;6126;57.908;16.490;2023-07-30T18:01:04;2.17;;;1.13;;
12124;SDS011;6126;57.908;16.490;2023-07-30T18:03:34;1.75;;;1.17;;
12124;SDS011;6126;57.908;16.490;2023-07-30T18:06:01;1.95;;;1.00;;
12124;SDS011;6126;57.908;16.490;2023-07-30T18:08:28;2.00;;;1.10;;
12124;SDS011;6126;57.908;16.490;2023-07-30T18:10:54;2.97;;;1.23;;
12124;SDS011;6126;57.908;16.490;2023-07-30T18:13:20;1.88;;;1.00;;
12124;SDS011;6126;57.908;16.490;2023-07-30T18:15:47;1.40;;;1.13;;
12124;SDS011;6126;57.908;16.490;2023-07-30T18:18:13;2.63;;;1.30;;
12124;SDS011;6126;57.908;16.490;2023-07-30T18:20:39;2.78;;;0.93;;
12124;SDS011;6126;57.908;16.490;2023-07-30T18:23:05;1.10;;;1.00;;
12124;SDS011;6126;57.908;16.490;2023-07-30T18:25:31;1.40;;;1.17;;
12124;SDS011;6126;57.908;16.490;2023-07-30T18:27:58;2.35;;;1.45;;
12124;SDS011;6126;57.908;16.490;2023-07-30T18:30:24;1.40;;;1.30;;
12124;SDS011;6126;57.908;16.490;2023-07-30T18:32:50;1.40;;;1.30;;
12124;SDS011;6126;57.908;16.490;2023-07-30T18:35:16;3.88;;;1.20;;
12124;SDS011;6126;57.908;16.490;2023-07-30T18:37:42;1.33;;;1.23;;
12124;SDS011;6126;57.908;16.490;2023-07-30T18:40:09;1.73;;;1.10;;
12124;SDS011;6126;57.908;16.490;2023-07-30T18:42:35;1.10;;;1.00;;
12124;SDS011;6126;57.908;16.490;2023-07-30T18:45:02;1.40;;;1.17;;
12124;SDS011;6126;57.908;16.490;2023-07-30T18:47:30;1.45;;;1.20;;
12124;SDS011;6126;57.908;16.490;2023-07-30T18:49:56;1.60;;;1.35;;
12124;SDS011;6126;57.908;16.490;2023-07-30T18:52:22;1.67;;;0.90;;
12124;SDS011;6126;57.908;16.490;2023-07-30T18:54:48;2.10;;;1.40;;
12124;SDS011;6126;57.908;16.490;2023-07-30T18:57:14;1.38;;;1.20;;
12124;SDS011;6126;57.908;16.490;2023-07-30T18:59:40;1.20;;;1.10;;
12124;SDS011;6126;57.908;16.490;2023-07-30T19:02:09;2.60;;;1.40;;
12124;SDS011;6126;57.908;16.490;2023-07-30T19:04:35;1.30;;;1.20;;
12124;SDS011;6126;57.908;16.490;2023-07-30T19:07:01;3.65;;;1.40;;
12124;SDS011;6126;57.908;16.490;2023-07-30T19:09:27;2.33;;;1.20;;
12124;SDS011;6126;57.908;16.490;2023-07-30T19:11:54;1.63;;;1.52;;
12124;SDS011;6126;57.908;16.490;2023-07-30T19:14:20;3.17;;;1.10;;
12124;SDS011;6126;57.908;16.490;2023-07-30T19:16:45;2.10;;;1.27;;
12124;SDS011;6126;57.908;16.490;2023-07-30T19:19:11;2.10;;;1.20;;
12124;SDS011;6126;57.908;16.490;2023-07-30T19:21:37;1.65;;;1.27;;
12124;SDS011;6126;57.908;16.490;2023-07-30T19:24:03;2.67;;;1.10;;
12124;SDS011;6126;57.908;16.490;2023-07-30T19:26:29;1.50;;;1.40;;
12124;SDS011;6126;57.908;16.490;2023-07-30T19:28:55;3.75;;;1.40;;
12124;SDS011;6126;57.908;16.490;2023-07-30T19:31:21;2.05;;;1.35;;
12124;SDS011;6126;57.908;16.490;2023-07-30T19:33:47;1.70;;;1.30;;
12124;SDS011;6126;57.908;16.490;2023-07-30T19:36:12;2.28;;;1.35;;
12124;SDS011;6126;57.908;16.490;2023-07-30T19:38:39;1.60;;;1.38;;
12124;SDS011;6126;57.908;16.490;2023-07-30T19:41:05;4.82;;;1.45;;
12124;SDS011;6126;57.908;16.490;2023-07-30T19:43:32;1.50;;;1.40;;
12124;SDS011;6126;57.908;16.490;2023-07-30T19:45:58;2.03;;;1.48;;
12124;SDS011;6126;57.908;16.490;2023-07-30T19:48:24;1.70;;;1.60;;
12124;SDS011;6126;57.908;16.490;2023-07-30T19:50:50;2.08;;;1.83;;
12124;SDS011;6126;57.908;16.490;2023-07-30T19:53:17;1.60;;;1.50;;
12124;SDS011;6126;57.908;16.490;2023-07-30T19:55:44;2.00;;;1.40;;
12124;SDS011;6126;57.908;16.490;2023-07-30T19:58:28;2.47;;;1.50;;
12124;SDS011;6126;57.908;16.490;2023-07-30T20:00:57;1.30;;;1.20;;
12124;SDS011;6126;57.908;16.490;2023-07-30T20:03:25;1.30;;;1.20;;
12124;SDS011;6126;57.908;16.490;2023-07-30T20:05:59;1.45;;;1.35;;
12124;SDS011;6126;57.908;16.490;2023-07-30T20:08:27;1.50;;;1.20;;
12124;SDS011;6126;57.908;16.490;2023-07-30T20:10:54;1.42;;;1.33;;
12124;SDS011;6126;57.908;16.490;2023-07-30T20:13:22;1.95;;;1.20;;
12124;SDS011;6126;57.908;16.490;2023-07-30T20:15:49;1.33;;;1.23;;
12124;SDS011;6126;57.908;16.490;2023-07-30T20:18:16;1.40;;;1.30;;
12124;SDS011;6126;57.908;16.490;2023-07-30T20:20:43;1.20;;;1.10;;
12124;SDS011;6126;57.908;16.490;2023-07-30T20:23:09;2.88;;;1.55;;
12124;SDS011;6126;57.908;16.490;2023-07-30T20:25:36;1.35;;;1.25;;
12124;SDS011;6126;57.908;16.490;2023-07-30T20:28:04;2.88;;;1.27;;
12124;SDS011;6126;57.908;16.490;2023-07-30T20:30:32;1.95;;;1.27;;
12124;SDS011;6126;57.908;16.490;2023-07-30T20:32:59;2.53;;;1.20;;
12124;SDS011;6126;57.908;16.490;2023-07-30T20:35:26;1.02;;;0.95;;
12124;SDS011;6126;57.908;16.490;2023-07-30T20:37:52;2.08;;;1.55;;
12124;SDS011;6126;57.908;16.490;2023-07-30T20:40:24;1.80;;;1.30;;
12124;SDS011;6126;57.908;16.490;2023-07-30T20:42:52;1.42;;;1.33;;
12124;SDS011;6126;57.908;16.490;2023-07-30T20:45:19;1.45;;;1.35;;
12124;SDS011;6126;57.908;16.490;2023-07-30T20:47:47;1.10;;;1.00;;
12124;SDS011;6126;57.908;16.490;2023-07-30T20:50:14;3.25;;;1.40;;
12124;SDS011;6126;57.908;16.490;2023-07-30T20:52:42;1.48;;;1.38;;
12124;SDS011;6126;57.908;16.490;2023-07-30T20:55:10;1.77;;;1.20;;
12124;SDS011;6126;57.908;16.490;2023-07-30T20:57:37;2.33;;;1.00;;
12124;SDS011;6126;57.908;16.490;2023-07-30T21:00:04;2.28;;;1.45;;
12124;SDS011;6126;57.908;16.490;2023-07-30T21:02:32;1.70;;;1.58;;
12124;SDS011;6126;57.908;16.490;2023-07-30T21:04:58;3.03;;;1.38;;
12124;SDS011;6126;57.908;16.490;2023-07-30T21:07:23;1.50;;;1.35;;
12124;SDS011;6126;57.908;16.490;2023-07-30T21:09:50;1.67;;;1.30;;
12124;SDS011;6126;57.908;16.490;2023-07-30T21:12:17;1.50;;;1.38;;
12124;SDS011;6126;57.908;16.490;2023-07-30T21:14:44;1.48;;;1.38;;
12124;SDS011;6126;57.908;16.490;2023-07-30T21:17:10;1.48;;;1.38;;
12124;SDS011;6126;57.908;16.490;2023-07-30T21:19:36;1.35;;;1.25;;
12124;SDS011;6126;57.908;16.490;2023-07-30T21:22:02;2.38;;;1.58;;
12124;SDS011;6126;57.908;16.490;2023-07-30T21:24:28;1.70;;;1.60;;
12124;SDS011;6126;57.908;16.490;2023-07-30T21:26:54;1.52;;;1.40;;
12124;SDS011;6126;57.908;16.490;2023-07-30T21:29:20;1.70;;;1.58;;
12124;SDS011;6126;57.908;16.490;2023-07-30T21:31:45;1.92;;;1.50;;
12124;SDS011;6126;57.908;16.490;2023-07-30T21:34:11;1.60;;;1.50;;
12124;SDS011;6126;57.908;16.490;2023-07-30T21:36:37;2.05;;;1.42;;
12124;SDS011;6126;57.908;16.490;2023-07-30T21:39:03;1.58;;;1.45;;
12124;SDS011;6126;57.908;16.490;2023-07-30T21:41:29;1.60;;;1.42;;
12124;SDS011;6126;57.908;16.490;2023-07-30T21:43:55;6.07;;;1.77;;
12124;SDS011;6126;57.908;16.490;2023-07-30T21:46:21;2.28;;;1.75;;
12124;SDS011;6126;57.908;16.490;2023-07-30T21:48:46;1.40;;;1.30;;
12124;SDS011;6126;57.908;16.490;2023-07-30T21:51:12;1.60;;;1.50;;
12124;SDS011;6126;57.908;16.490;2023-07-30T21:53:38;2.00;;;1.80;;
12124;SDS011;6126;57.908;16.490;2023-07-30T21:56:04;1.50;;;1.40;;
12124;SDS011;6126;57.908;16.490;2023-07-30T21:58:30;2.70;;;1.73;;
12124;SDS011;6126;57.908;16.490;2023-07-30T22:00:56;1.50;;;1.40;;
12124;SDS011;6126;57.908;16.490;2023-07-30T22:03:24;1.67;;;1.58;;
12124;SDS011;6126;57.908;16.490;2023-07-30T22:05:51;2.60;;;1.60;;
12124;SDS011;6126;57.908;16.490;2023-07-30T22:08:17;1.80;;;1.70;;
12124;SDS011;6126;57.908;16.490;2023-07-30T22:10:44;2.53;;;1.77;;
12124;SDS011;6126;57.908;16.490;2023-07-30T22:13:12;1.58;;;1.48;;
12124;SDS011;6126;57.908;16.490;2023-07-30T22:15:46;1.73;;;1.45;;
12124;SDS011;6126;57.908;16.490;2023-07-30T22:18:12;1.98;;;1.50;;
12124;SDS011;6126;57.908;16.490;2023-07-30T22:20:39;4.30;;;2.13;;
12124;SDS011;6126;57.908;16.490;2023-07-30T22:23:05;1.83;;;1.60;;
12124;SDS011;6126;57.908;16.490;2023-07-30T22:25:31;1.95;;;1.65;;
12124;SDS011;6126;57.908;16.490;2023-07-30T22:27:57;2.05;;;1.63;;
12124;SDS011;6126;57.908;16.490;2023-07-30T22:30:23;1.80;;;1.70;;
12124;SDS011;6126;57.908;16.490;2023-07-30T22:32:50;2.85;;;2.15;;
12124;SDS011;6126;57.908;16.490;2023-07-30T22:35:15;2.25;;;2.05;;
12124;SDS011;6126;57.908;16.490;2023-07-30T22:37:41;1.90;;;1.42;;
12124;SDS011;6126;57.908;16.490;2023-07-30T22:40:08;1.92;;;1.83;;
12124;SDS011;6126;57.908;16.490;2023-07-30T22:42:34;2.05;;;1.77;;
12124;SDS011;6126;57.908;16.490;2023-07-30T22:45:01;2.65;;;1.50;;
12124;SDS011;6126;57.908;16.490;2023-07-30T22:47:33;2.33;;;1.85;;
12124;SDS011;6126;57.908;16.490;2023-07-30T22:49:59;2.67;;;1.98;;
12124;SDS011;6126;57.908;16.490;2023-07-30T22:52:25;2.05;;;1.70;;
12124;SDS011;6126;57.908;16.490;2023-07-30T22:54:51;2.47;;;1.85;;
12124;SDS011;6126;57.908;16.490;2023-07-30T22:57:16;1.38;;;1.27;;
12124;SDS011;6126;57.908;16.490;2023-07-30T22:59:42;7.88;;;1.50;;
12124;SDS011;6126;57.908;16.490;2023-07-30T23:02:08;1.73;;;1.42;;
12124;SDS011;6126;57.908;16.490;2023-07-30T23:04:34;1.98;;;1.50;;
12124;SDS011;6126;57.908;16.490;2023-07-30T23:07:00;2.65;;;1.65;;
12124;SDS011;6126;57.908;16.490;2023-07-30T23:09:26;3.53;;;1.40;;
12124;SDS011;6126;57.908;16.490;2023-07-30T23:11:51;2.22;;;1.38;;
12124;SDS011;6126;57.908;16.490;2023-07-30T23:14:18;1.70;;;1.42;;
12124;SDS011;6126;57.908;16.490;2023-07-30T23:16:45;2.78;;;1.48;;
12124;SDS011;6126;57.908;16.490;2023-07-30T23:19:11;1.58;;;1.10;;
12124;SDS011;6126;57.908;16.490;2023-07-30T23:21:36;2.30;;;1.48;;
12124;SDS011;6126;57.908;16.490;2023-07-30T23:24:02;3.90;;;1.40;;
12124;SDS011;6126;57.908;16.490;2023-07-30T23:26:31;4.20;;;1.60;;
12124;SDS011;6126;57.908;16.490;2023-07-30T23:28:57;3.03;;;1.48;;
12124;SDS011;6126;57.908;16.490;2023-07-30T23:31:23;1.60;;;1.38;;
12124;SDS011;6126;57.908;16.490;2023-07-30T23:33:49;2.40;;;1.45;;
12124;SDS011;6126;57.908;16.490;2023-07-30T23:36:15;1.45;;;1.35;;
12124;SDS011;6126;57.908;16.490;2023-07-30T23:38:43;2.55;;;1.33;;
12124;SDS011;6126;57.908;16.490;2023-07-30T23:41:09;2.03;;;1.58;;
12124;SDS011;6126;57.908;16.490;2023-07-30T23:43:35;2.63;;;1.30;;
12124;SDS011;6126;57.908;16.490;2023-07-30T23:46:01;1.33;;;1.10;;
12124;SDS011;6126;57.908;16.490;2023-07-30T23:48:27;1.23;;;1.13;;
12124;SDS011;6126;57.908;16.490;2023-07-30T23:50:52;2.38;;;1.30;;
12124;SDS011;6126;57.908;16.490;2023-07-30T23:53:18;2.40;;;1.27;;
12124;SDS011;6126;57.908;16.490;2023-07-30T23:55:44;1.77;;;1.25;;
12124;SDS011;6126;57.908;16.490;2023-07-30T23:58:10;3.30;;;1.23;;
